createdAt,value
2023-03-18T00:00:34.240Z,6.38
2023-03-18T00:03:01.987Z,6.32
2023-03-18T00:05:29.451Z,6.60
2023-03-18T00:07:57.253Z,7.28
2023-03-18T00:10:24.995Z,4.85
2023-03-18T00:12:53.586Z,3.67
2023-03-18T00:15:21.211Z,4.80
2023-03-18T00:17:48.755Z,4.30
2023-03-18T00:20:18.565Z,5.15
2023-03-18T00:22:46.978Z,5.80
2023-03-18T00:25:15.140Z,8.73
2023-03-18T00:27:42.803Z,3.30
2023-03-18T00:30:12.525Z,1.58
2023-03-18T00:32:41.653Z,6.72
2023-03-18T00:35:09.668Z,4.95
2023-03-18T00:37:37.209Z,8.48
2023-03-18T00:40:08.232Z,3.97
2023-03-18T00:42:48.056Z,7.40
2023-03-18T00:45:17.338Z,5.90
2023-03-18T00:47:45.233Z,5.68
2023-03-18T00:50:12.917Z,4.20
2023-03-18T00:52:40.880Z,10.50
2023-03-18T00:55:08.914Z,35.15
2023-03-18T00:57:37.072Z,7.93
2023-03-18T01:00:07.298Z,6.57
2023-03-18T01:02:34.964Z,7.03
2023-03-18T01:05:04.022Z,6.22
2023-03-18T01:07:31.470Z,7.88
2023-03-18T01:09:59.233Z,7.85
2023-03-18T01:12:26.695Z,6.78
2023-03-18T01:14:54.674Z,6.18
2023-03-18T01:17:22.162Z,4.68
2023-03-18T01:22:17.693Z,6.15
2023-03-18T01:24:49.422Z,6.82
2023-03-18T01:27:19.767Z,7.57
2023-03-18T01:29:48.795Z,6.68
2023-03-18T01:32:22.469Z,7.35
2023-03-18T01:34:49.979Z,6.88
2023-03-18T01:37:17.394Z,7.63
2023-03-18T01:39:48.995Z,5.00
2023-03-18T01:42:22.818Z,5.28
2023-03-18T01:44:50.922Z,8.90
2023-03-18T01:47:18.758Z,7.13
2023-03-18T01:49:53.519Z,6.13
2023-03-18T01:52:25.398Z,4.68
2023-03-18T01:55:17.909Z,10.48
2023-03-18T01:57:46.937Z,5.25
2023-03-18T02:00:16.585Z,8.60
2023-03-18T02:02:48.388Z,5.75
2023-03-18T02:05:20.442Z,8.70
2023-03-18T02:07:48.562Z,11.10
2023-03-18T02:10:30.129Z,8.35
2023-03-18T02:13:03.628Z,8.55
2023-03-18T02:15:40.450Z,5.03
2023-03-18T02:18:31.129Z,10.30
2023-03-18T02:21:21.008Z,6.35
2023-03-18T02:24:40.292Z,12.13
2023-03-18T02:27:28.216Z,7.55
2023-03-18T02:30:01.692Z,8.60
2023-03-18T02:32:34.308Z,12.05
2023-03-18T02:35:08.330Z,12.05
2023-03-18T02:37:38.552Z,8.18
2023-03-18T02:40:23.786Z,7.97
2023-03-18T02:42:52.781Z,5.82
2023-03-18T02:45:45.707Z,7.63
2023-03-18T02:48:19.021Z,6.53
2023-03-18T02:50:47.597Z,5.40
2023-03-18T02:53:15.418Z,5.88
2023-03-18T02:55:43.927Z,6.68
2023-03-18T02:58:11.667Z,8.27
2023-03-18T03:00:39.737Z,7.00
2023-03-18T03:03:07.417Z,6.53
2023-03-18T03:05:35.404Z,6.25
2023-03-18T03:08:03.006Z,10.13
2023-03-18T03:10:34.048Z,3.85
2023-03-18T03:13:02.518Z,11.52
2023-03-18T03:15:30.617Z,4.45
2023-03-18T03:18:00.002Z,5.13
2023-03-18T03:22:55.243Z,4.75
2023-03-18T03:25:23.033Z,4.47
2023-03-18T03:27:50.705Z,4.03
2023-03-18T03:30:18.858Z,4.68
2023-03-18T03:32:47.800Z,9.30
2023-03-18T03:35:19.531Z,7.13
2023-03-18T03:37:47.257Z,12.55
2023-03-18T03:40:19.199Z,5.90
2023-03-18T03:42:47.833Z,9.13
2023-03-18T03:45:17.143Z,13.23
2023-03-18T03:47:49.370Z,11.30
2023-03-18T03:50:18.427Z,8.07
2023-03-18T03:52:46.200Z,13.98
2023-03-18T03:55:16.415Z,12.00
2023-03-18T03:57:44.164Z,13.18
2023-03-18T04:00:14.740Z,8.77
2023-03-18T04:02:43.645Z,7.38
2023-03-18T04:05:14.595Z,9.23
2023-03-18T04:07:42.367Z,10.00
2023-03-18T04:10:13.670Z,9.05
2023-03-18T04:12:41.276Z,7.95
2023-03-18T04:15:09.826Z,9.57
2023-03-18T04:17:38.017Z,5.15
2023-03-18T04:20:05.993Z,10.15
2023-03-18T04:22:34.204Z,12.00
2023-03-18T04:25:04.981Z,10.10
2023-03-18T04:27:33.534Z,10.98
2023-03-18T04:30:08.748Z,11.25
2023-03-18T04:32:45.353Z,12.90
2023-03-18T04:35:13.187Z,11.98
2023-03-18T04:37:40.565Z,6.55
2023-03-18T04:40:09.137Z,9.75
2023-03-18T04:42:36.972Z,10.63
2023-03-18T04:45:06.358Z,12.98
2023-03-18T04:47:35.941Z,12.65
2023-03-18T04:50:04.789Z,16.15
2023-03-18T04:52:32.620Z,14.07
2023-03-18T04:55:00.599Z,19.50
2023-03-18T04:57:29.335Z,17.02
2023-03-18T04:59:56.885Z,14.10
2023-03-18T05:02:27.997Z,17.75
2023-03-18T05:04:55.771Z,20.02
2023-03-18T05:07:23.673Z,16.02
2023-03-18T05:09:59.290Z,14.30
2023-03-18T05:12:27.730Z,11.75
2023-03-18T05:14:55.460Z,15.98
2023-03-18T05:17:23.119Z,13.05
2023-03-18T05:19:56.482Z,20.98
2023-03-18T05:22:24.818Z,12.77
2023-03-18T05:24:58.956Z,13.30
2023-03-18T05:27:29.868Z,13.60
2023-03-18T05:30:06.832Z,12.30
2023-03-18T05:32:40.729Z,8.20
2023-03-18T05:35:10.652Z,11.98
2023-03-18T05:37:58.315Z,8.63
2023-03-18T05:40:26.401Z,7.78
2023-03-18T05:43:04.553Z,5.05
2023-03-18T05:45:40.403Z,5.50
2023-03-18T05:48:10.862Z,6.40
2023-03-18T05:50:47.003Z,7.13
2023-03-18T05:53:19.128Z,6.20
2023-03-18T05:55:49.851Z,7.10
2023-03-18T05:58:18.926Z,7.88
2023-03-18T06:00:50.686Z,7.65
2023-03-18T06:03:19.506Z,4.00
2023-03-18T06:05:47.778Z,3.70
2023-03-18T06:08:15.694Z,4.57
2023-03-18T06:10:43.199Z,3.13
2023-03-18T06:13:11.849Z,2.97
2023-03-18T06:15:39.268Z,3.17
2023-03-18T06:18:07.259Z,5.18
2023-03-18T06:20:35.529Z,2.65
2023-03-18T06:23:04.010Z,4.88
2023-03-18T06:25:32.159Z,1.77
2023-03-18T06:28:00.139Z,5.65
2023-03-18T06:30:29.944Z,6.55
2023-03-18T06:32:57.620Z,5.75
2023-03-18T06:35:28.259Z,3.60
2023-03-18T06:37:56.656Z,6.90
2023-03-18T06:40:25.312Z,4.07
2023-03-18T06:42:54.639Z,3.95
2023-03-18T06:45:51.308Z,3.10
2023-03-18T06:48:20.083Z,2.50
2023-03-18T06:50:49.895Z,3.55
2023-03-18T06:53:25.425Z,2.65
2023-03-18T06:55:54.122Z,4.40
2023-03-18T06:58:26.005Z,5.85
2023-03-18T07:01:08.453Z,2.08
2023-03-18T07:03:41.394Z,6.43
2023-03-18T07:06:10.762Z,7.07
2023-03-18T07:08:39.727Z,4.60
2023-03-18T07:11:07.774Z,4.72
2023-03-18T07:13:39.099Z,4.28
2023-03-18T07:16:12.818Z,5.95
2023-03-18T07:18:40.699Z,4.00
2023-03-18T07:21:09.726Z,2.97
2023-03-18T07:23:37.936Z,3.53
2023-03-18T07:26:05.575Z,3.00
2023-03-18T07:28:33.132Z,2.03
2023-03-18T07:31:01.365Z,4.07
2023-03-18T07:33:29.144Z,6.28
2023-03-18T07:35:56.928Z,3.13
2023-03-18T07:38:24.582Z,3.78
2023-03-18T07:40:52.278Z,2.78
2023-03-18T07:43:19.913Z,4.97
2023-03-18T07:45:47.393Z,5.97
2023-03-18T07:48:15.417Z,3.15
2023-03-18T07:50:42.886Z,4.45
2023-03-18T07:53:10.758Z,4.28
2023-03-18T07:55:38.664Z,4.50
2023-03-18T07:58:07.621Z,6.65
2023-03-18T08:00:35.790Z,8.27
2023-03-18T08:03:04.107Z,3.72
2023-03-18T08:05:32.123Z,3.92
2023-03-18T08:07:59.941Z,2.90
2023-03-18T08:10:30.533Z,2.60
2023-03-18T08:12:58.341Z,1.98
2023-03-18T08:15:26.509Z,5.30
2023-03-18T08:17:54.240Z,4.60
2023-03-18T08:20:23.167Z,4.13
2023-03-18T08:22:51.279Z,3.05
2023-03-18T08:25:18.877Z,5.82
2023-03-18T08:27:46.516Z,2.80
2023-03-18T08:30:15.016Z,3.22
2023-03-18T08:32:43.425Z,5.13
2023-03-18T08:35:11.700Z,5.50
2023-03-18T08:37:39.673Z,2.13
2023-03-18T08:40:09.954Z,3.25
2023-03-18T08:42:37.625Z,3.17
2023-03-18T08:45:05.583Z,3.47
2023-03-18T08:47:33.232Z,4.03
2023-03-18T08:50:00.794Z,3.72
2023-03-18T08:52:28.349Z,1.65
2023-03-18T08:54:55.747Z,3.20
2023-03-18T08:57:23.268Z,2.15
2023-03-18T09:02:19.148Z,4.50
2023-03-18T09:04:48.292Z,3.92
2023-03-18T09:07:18.835Z,4.05
2023-03-18T09:09:46.616Z,1.80
2023-03-18T09:12:14.311Z,2.33
2023-03-18T09:14:43.877Z,7.32
2023-03-18T09:17:11.568Z,6.65
2023-03-18T09:19:39.566Z,4.75
2023-03-18T09:22:07.412Z,3.60
2023-03-18T09:24:35.944Z,6.15
2023-03-18T09:27:03.576Z,6.13
2023-03-18T09:29:31.029Z,9.93
2023-03-18T09:31:58.547Z,7.63
2023-03-18T09:34:27.303Z,5.97
2023-03-18T09:36:54.807Z,6.28
2023-03-18T09:39:22.450Z,3.60
2023-03-18T09:42:15.992Z,6.65
2023-03-18T09:44:43.939Z,6.35
2023-03-18T09:47:22.967Z,9.23
2023-03-18T09:50:12.221Z,5.20
2023-03-18T09:52:47.323Z,3.47
2023-03-18T09:55:46.637Z,7.60
2023-03-18T09:58:51.733Z,4.57
2023-03-18T10:01:21.853Z,8.23
2023-03-18T10:04:09.702Z,6.00
2023-03-18T10:06:38.118Z,7.20
2023-03-18T10:09:14.561Z,8.75
2023-03-18T10:11:45.366Z,7.82
2023-03-18T10:14:37.290Z,9.30
2023-03-18T10:17:31.241Z,9.00
2023-03-18T10:20:04.549Z,5.47
2023-03-18T10:22:41.160Z,9.82
2023-03-18T10:25:46.046Z,9.10
2023-03-18T10:28:33.724Z,5.28
2023-03-18T10:31:23.744Z,6.70
2023-03-18T10:33:59.708Z,4.50
2023-03-18T10:36:51.141Z,5.50
2023-03-18T10:39:22.591Z,7.03
2023-03-18T10:41:52.514Z,5.43
2023-03-18T10:44:28.944Z,4.63
2023-03-18T10:47:22.134Z,7.70
2023-03-18T10:50:11.186Z,7.55
2023-03-18T10:52:54.853Z,9.50
2023-03-18T10:55:35.488Z,5.30
2023-03-18T10:58:15.437Z,9.93
2023-03-18T11:00:45.091Z,9.30
2023-03-18T11:03:30.672Z,8.15
2023-03-18T11:06:03.105Z,7.15
2023-03-18T11:08:40.176Z,8.35
2023-03-18T11:11:21.321Z,8.18
2023-03-18T11:13:57.677Z,6.63
2023-03-18T11:16:30.704Z,10.10
2023-03-18T11:18:59.090Z,7.35
2023-03-18T11:21:29.476Z,5.82
2023-03-18T11:24:10.950Z,8.85
2023-03-18T11:27:06.546Z,8.88
2023-03-18T11:29:35.058Z,8.45
2023-03-18T11:32:03.267Z,9.75
2023-03-18T11:34:35.305Z,8.32
2023-03-18T11:37:05.708Z,12.88
2023-03-18T11:39:39.718Z,6.15
2023-03-18T11:42:23.193Z,3.92
2023-03-18T11:44:55.371Z,4.97
2023-03-18T11:47:30.372Z,7.60
2023-03-18T11:49:58.228Z,9.82
2023-03-18T11:52:32.000Z,10.75
2023-03-18T11:55:01.613Z,11.27
2023-03-18T11:57:34.801Z,8.27
2023-03-18T12:00:25.541Z,8.15
2023-03-18T12:03:30.390Z,6.13
2023-03-18T12:06:10.791Z,6.95
2023-03-18T12:08:51.031Z,5.93
2023-03-18T12:11:47.204Z,4.78
2023-03-18T12:14:25.949Z,6.65
2023-03-18T12:17:05.553Z,7.80
2023-03-18T12:19:39.178Z,5.47
2023-03-18T12:22:49.067Z,11.13
2023-03-18T12:25:38.613Z,5.13
2023-03-18T12:28:34.708Z,9.57
2023-03-18T12:31:04.943Z,11.30
2023-03-18T12:33:51.094Z,6.18
2023-03-18T12:36:23.720Z,8.20
2023-03-18T12:38:51.780Z,4.85
2023-03-18T12:41:42.661Z,4.78
2023-03-18T12:44:16.087Z,3.67
2023-03-18T12:46:52.463Z,5.55
2023-03-18T12:49:25.367Z,5.45
2023-03-18T12:52:15.586Z,3.92
2023-03-18T12:54:58.670Z,5.68
2023-03-18T12:57:49.496Z,4.60
2023-03-18T13:00:24.066Z,3.67
2023-03-18T13:03:17.349Z,3.25
2023-03-18T13:05:53.358Z,4.13
2023-03-18T13:08:57.911Z,2.53
2023-03-18T13:11:50.868Z,7.85
2023-03-18T13:14:43.109Z,3.33
2023-03-18T13:17:25.735Z,3.38
2023-03-18T13:19:53.507Z,5.63
2023-03-18T13:22:49.874Z,2.22
2023-03-18T13:25:54.731Z,3.78
2023-03-18T13:28:41.891Z,2.75
2023-03-18T13:31:30.853Z,5.80
2023-03-18T13:34:26.650Z,4.68
2023-03-18T13:37:10.075Z,4.07
2023-03-18T13:39:53.628Z,3.90
2023-03-18T13:42:26.161Z,2.28
2023-03-18T13:45:13.104Z,6.50
2023-03-18T13:47:42.716Z,1.27
2023-03-18T13:50:19.417Z,1.40
2023-03-18T13:52:49.054Z,3.90
2023-03-18T13:55:29.772Z,3.13
2023-03-18T13:58:06.337Z,3.80
2023-03-18T14:00:40.591Z,2.22
2023-03-18T14:03:30.581Z,1.23
2023-03-18T14:06:10.489Z,2.28
2023-03-18T14:08:44.327Z,1.70
2023-03-18T14:11:17.887Z,2.63
2023-03-18T14:14:02.122Z,1.95
2023-03-18T14:16:50.293Z,2.80
2023-03-18T14:19:22.183Z,2.53
2023-03-18T14:22:04.846Z,3.83
2023-03-18T14:24:32.942Z,0.75
2023-03-18T14:27:06.888Z,3.17
2023-03-18T14:29:37.100Z,1.08
2023-03-18T14:32:26.261Z,2.15
2023-03-18T14:34:59.396Z,1.88
2023-03-18T14:37:32.752Z,1.80
2023-03-18T14:40:05.458Z,1.88
2023-03-18T14:42:42.131Z,2.22
2023-03-18T14:45:35.971Z,1.55
2023-03-18T14:48:13.797Z,2.30
2023-03-18T14:50:50.304Z,5.57
2023-03-18T14:53:22.805Z,3.92
2023-03-18T14:55:56.537Z,4.65
2023-03-18T14:58:26.831Z,4.55
2023-03-18T15:01:00.605Z,2.45
2023-03-18T15:03:29.512Z,0.90
2023-03-18T15:06:08.133Z,1.33
2023-03-18T15:08:47.830Z,4.75
2023-03-18T15:11:18.908Z,1.85
2023-03-18T15:13:46.621Z,0.98
2023-03-18T15:16:19.935Z,1.48
2023-03-18T15:18:53.171Z,1.38
2023-03-18T15:21:25.231Z,1.48
2023-03-18T15:24:03.671Z,1.60
2023-03-18T15:26:37.233Z,2.20
2023-03-18T15:29:24.413Z,1.95
2023-03-18T15:31:53.094Z,1.17
2023-03-18T15:34:30.575Z,2.05
2023-03-18T15:37:01.065Z,2.50
2023-03-18T15:39:32.369Z,1.17
2023-03-18T15:42:01.591Z,0.43
2023-03-18T15:44:36.962Z,3.95
2023-03-18T15:47:26.476Z,3.22
2023-03-18T15:49:56.428Z,3.20
2023-03-18T15:52:36.713Z,0.60
2023-03-18T15:55:31.970Z,1.58
2023-03-18T15:58:01.080Z,2.95
2023-03-18T16:00:28.836Z,0.52
2023-03-18T16:02:56.362Z,3.15
2023-03-18T16:05:26.422Z,1.05
2023-03-18T16:07:54.797Z,2.40
2023-03-18T16:10:23.979Z,1.83
2023-03-18T16:12:55.156Z,1.08
2023-03-18T16:15:25.528Z,2.47
2023-03-18T16:17:55.040Z,1.27
2023-03-18T16:20:28.949Z,0.70
2023-03-18T16:22:57.954Z,0.68
2023-03-18T16:25:26.671Z,1.67
2023-03-18T16:27:56.297Z,2.95
2023-03-18T16:30:26.414Z,5.50
2023-03-18T16:32:55.090Z,3.75
2023-03-18T16:35:25.509Z,3.70
2023-03-18T16:37:53.699Z,4.32
2023-03-18T16:40:23.947Z,4.20
2023-03-18T16:42:52.757Z,2.20
2023-03-18T16:45:25.289Z,4.03
2023-03-18T16:47:57.313Z,2.33
2023-03-18T16:50:30.459Z,4.13
2023-03-18T16:52:57.987Z,2.03
2023-03-18T16:55:26.845Z,4.15
2023-03-18T16:57:58.632Z,3.83
2023-03-18T17:00:32.042Z,1.92
2023-03-18T17:03:01.103Z,4.82
2023-03-18T17:05:30.399Z,9.40
2023-03-18T17:07:57.906Z,3.70
2023-03-18T17:10:27.149Z,1.45
2023-03-18T17:12:59.634Z,3.97
2023-03-18T17:15:32.442Z,2.88
2023-03-18T17:18:00.882Z,4.20
2023-03-18T17:20:30.338Z,2.90
2023-03-18T17:22:58.673Z,2.20
2023-03-18T17:25:28.786Z,4.78
2023-03-18T17:27:57.532Z,2.65
2023-03-18T17:30:32.667Z,4.68
2023-03-18T17:33:00.943Z,5.43
2023-03-18T17:35:28.803Z,6.43
2023-03-18T17:37:56.853Z,3.63
2023-03-18T17:40:28.858Z,3.55
2023-03-18T17:42:56.640Z,4.05
2023-03-18T17:45:33.777Z,2.80
2023-03-18T17:48:23.666Z,2.47
2023-03-18T17:50:55.304Z,2.55
2023-03-18T17:53:25.923Z,2.97
2023-03-18T17:55:54.786Z,4.50
2023-03-18T17:58:24.641Z,2.30
2023-03-18T18:00:54.107Z,2.95
2023-03-18T18:03:25.826Z,5.75
2023-03-18T18:05:55.337Z,4.97
2023-03-18T18:08:25.581Z,4.72
2023-03-18T18:10:56.775Z,8.30
2023-03-18T18:13:24.493Z,5.57
2023-03-18T18:15:52.849Z,7.72
2023-03-18T18:18:26.769Z,8.63
2023-03-18T18:21:00.410Z,6.22
2023-03-18T18:23:33.776Z,5.07
2023-03-18T18:26:04.652Z,5.40
2023-03-18T18:28:35.066Z,6.50
2023-03-18T18:31:04.307Z,6.53
2023-03-18T18:33:33.054Z,3.80
2023-03-18T18:36:01.680Z,5.70
2023-03-18T18:38:30.053Z,5.30
2023-03-18T18:40:58.645Z,7.13
2023-03-18T18:43:26.664Z,8.40
2023-03-18T18:45:55.689Z,5.10
2023-03-18T18:48:34.954Z,4.32
2023-03-18T18:51:04.272Z,7.57
2023-03-18T18:53:36.630Z,5.13
2023-03-18T18:56:18.677Z,3.53
2023-03-18T18:58:47.636Z,3.78
2023-03-18T19:01:15.310Z,7.35
2023-03-18T19:03:43.273Z,4.57
2023-03-18T19:06:25.764Z,3.85
2023-03-18T19:08:55.456Z,2.78
2023-03-18T19:11:24.703Z,3.97
2023-03-18T19:13:53.390Z,5.78
2023-03-18T19:16:34.657Z,4.25
2023-03-18T19:19:03.142Z,3.30
2023-03-18T19:21:30.632Z,2.22
2023-03-18T19:23:58.747Z,2.72
2023-03-18T19:26:26.367Z,4.72
2023-03-18T19:28:59.226Z,4.03
2023-03-18T19:31:30.836Z,3.45
2023-03-18T19:33:59.988Z,4.25
2023-03-18T19:36:33.404Z,8.30
2023-03-18T19:39:02.686Z,7.30
2023-03-18T19:41:30.743Z,5.70
2023-03-18T19:44:02.273Z,7.03
2023-03-18T19:46:39.252Z,5.82
2023-03-18T19:51:40.206Z,4.50
2023-03-18T19:54:19.358Z,7.03
2023-03-18T19:56:47.184Z,6.93
2023-03-18T19:59:22.905Z,7.00
2023-03-18T20:01:51.697Z,9.77
2023-03-18T20:04:20.174Z,8.07
2023-03-18T20:06:47.792Z,9.75
2023-03-18T20:09:15.217Z,7.80
2023-03-18T20:11:42.689Z,5.47
2023-03-18T20:14:28.526Z,6.53
2023-03-18T20:17:00.668Z,8.27
2023-03-18T20:19:28.223Z,8.00
2023-03-18T20:21:55.872Z,9.98
2023-03-18T20:24:29.481Z,5.63
2023-03-18T20:26:57.138Z,6.47
2023-03-18T20:29:25.453Z,7.95
2023-03-18T20:31:53.557Z,13.60
2023-03-18T20:34:21.142Z,13.90
2023-03-18T20:36:48.629Z,10.50
2023-03-18T20:39:22.518Z,8.30
2023-03-18T20:41:50.808Z,10.63
2023-03-18T20:44:18.205Z,9.73
2023-03-18T20:46:46.160Z,7.45
2023-03-18T20:49:14.224Z,9.68
2023-03-18T20:51:41.842Z,10.73
2023-03-18T20:54:23.781Z,8.10
2023-03-18T20:56:51.791Z,7.18
2023-03-18T20:59:19.187Z,8.93
2023-03-18T21:01:46.633Z,9.32
2023-03-18T21:06:42.468Z,9.98
2023-03-18T21:09:12.334Z,9.43
2023-03-18T21:11:40.077Z,4.65
2023-03-18T21:14:07.538Z,8.82
2023-03-18T21:16:37.715Z,8.40
2023-03-18T21:19:05.710Z,6.65
2023-03-18T21:21:38.594Z,5.07
2023-03-18T21:24:25.422Z,13.52
2023-03-18T21:27:04.199Z,5.57
2023-03-18T21:29:33.468Z,7.38
2023-03-18T21:32:02.632Z,9.05
2023-03-18T21:34:30.596Z,8.27
2023-03-18T21:36:58.053Z,6.07
2023-03-18T21:39:25.512Z,9.45
2023-03-18T21:44:20.629Z,5.43
2023-03-18T21:46:48.108Z,8.40
2023-03-18T21:49:16.132Z,9.05
2023-03-18T21:51:43.613Z,8.98
2023-03-18T21:54:18.873Z,7.28
2023-03-18T21:56:46.460Z,8.98
2023-03-18T21:59:13.881Z,8.70
2023-03-18T22:01:41.558Z,9.70
2023-03-18T22:04:09.040Z,7.28
2023-03-18T22:06:36.517Z,9.63
2023-03-18T22:11:31.663Z,9.75
2023-03-18T22:13:59.110Z,5.20
2023-03-18T22:16:26.803Z,8.75
2023-03-18T22:18:54.429Z,5.88
2023-03-18T22:21:27.564Z,6.47
2023-03-18T22:23:55.737Z,7.70
2023-03-18T22:26:23.445Z,9.65
2023-03-18T22:28:50.998Z,7.65
2023-03-18T22:31:25.739Z,11.82
2023-03-18T22:33:54.180Z,10.00
2023-03-18T22:36:22.094Z,11.77
2023-03-18T22:38:49.982Z,6.97
2023-03-18T22:41:23.150Z,10.23
2023-03-18T22:43:51.253Z,17.55
2023-03-18T22:46:19.012Z,9.23
2023-03-18T22:48:46.592Z,10.80
2023-03-18T22:51:44.871Z,13.52
2023-03-18T22:54:18.073Z,9.95
2023-03-18T22:56:45.825Z,10.02
2023-03-18T22:59:14.416Z,5.93
2023-03-18T23:01:41.973Z,9.52
2023-03-18T23:04:12.316Z,7.88
2023-03-18T23:06:39.875Z,7.72
2023-03-18T23:09:07.365Z,6.40
2023-03-18T23:11:34.992Z,8.35
2023-03-18T23:14:04.198Z,8.25
2023-03-18T23:16:31.761Z,10.38
2023-03-18T23:18:59.200Z,6.03
2023-03-18T23:21:26.680Z,9.90
2023-03-18T23:26:21.837Z,10.63
2023-03-18T23:28:49.368Z,12.88
2023-03-18T23:31:17.177Z,9.25
2023-03-18T23:33:45.252Z,6.78
2023-03-18T23:36:13.413Z,7.50
2023-03-18T23:38:41.386Z,5.78
2023-03-18T23:41:09.013Z,7.28
2023-03-18T23:43:36.805Z,6.47
2023-03-18T23:46:04.466Z,8.68
2023-03-18T23:48:32.029Z,4.78
2023-03-18T23:50:59.529Z,8.52
2023-03-18T23:53:27.371Z,7.03
2023-03-18T23:55:54.854Z,10.38
